createdAt,value
2018-12-18T00:00:35.016Z,35.44
2018-12-18T00:01:34.963Z,35.63
2018-12-18T00:02:34.917Z,35.53
2018-12-18T00:03:39.326Z,35.53
2018-12-18T00:04:34.815Z,35.63
2018-12-18T00:05:34.765Z,35.73
2018-12-18T00:06:34.715Z,35.73
2018-12-18T00:07:34.667Z,35.73
2018-12-18T00:08:34.616Z,35.53
2018-12-18T00:09:34.566Z,35.53
2018-12-18T00:10:34.518Z,35.53
2018-12-18T00:11:34.467Z,35.53
2018-12-18T00:12:34.417Z,35.63
2018-12-18T00:13:34.368Z,35.44
2018-12-18T00:14:34.317Z,35.53
2018-12-18T00:15:34.268Z,35.63
2018-12-18T00:16:34.217Z,35.63
2018-12-18T00:17:34.168Z,35.63
2018-12-18T00:18:34.119Z,35.63
2018-12-18T00:19:34.068Z,35.63
2018-12-18T00:20:34.019Z,35.73
2018-12-18T00:21:33.968Z,35.63
2018-12-18T00:22:33.920Z,35.73
2018-12-18T00:23:33.869Z,35.63
2018-12-18T00:24:33.820Z,35.73
2018-12-18T00:25:33.770Z,35.63
2018-12-18T00:26:33.724Z,35.73
2018-12-18T00:27:33.675Z,35.53
2018-12-18T00:28:33.622Z,35.63
2018-12-18T00:29:33.574Z,35.63
2018-12-18T00:30:33.521Z,35.63
2018-12-18T00:31:33.478Z,35.63
2018-12-18T00:32:33.423Z,35.53
2018-12-18T00:33:33.372Z,35.63
2018-12-18T00:34:33.322Z,35.63
2018-12-18T00:35:33.273Z,35.73
2018-12-18T00:36:33.227Z,35.63
2018-12-18T00:37:33.173Z,35.73
2018-12-18T00:38:33.124Z,35.63
2018-12-18T00:39:33.074Z,35.63
2018-12-18T00:40:33.025Z,35.53
2018-12-18T00:41:32.974Z,35.63
2018-12-18T00:42:32.925Z,35.73
2018-12-18T00:43:32.875Z,35.63
2018-12-18T00:44:32.827Z,35.63
2018-12-18T00:45:32.775Z,35.53
2018-12-18T00:46:32.728Z,35.63
2018-12-18T00:47:32.993Z,35.53
2018-12-18T00:48:32.627Z,35.63
2018-12-18T00:49:32.576Z,35.35
2018-12-18T00:50:32.577Z,35.53
2018-12-18T00:51:32.477Z,35.35
2018-12-18T00:52:32.427Z,35.44
2018-12-18T00:53:32.377Z,35.63
2018-12-18T00:54:32.328Z,35.53
2018-12-18T00:55:32.277Z,35.35
2018-12-18T00:56:32.229Z,35.63
2018-12-18T00:57:32.178Z,35.53
2018-12-18T00:58:32.128Z,35.35
2018-12-18T00:59:32.079Z,35.53
2018-12-18T01:00:32.031Z,35.44
2018-12-18T01:01:31.979Z,35.63
2018-12-18T01:02:31.931Z,35.53
2018-12-18T01:03:31.883Z,35.53
2018-12-18T01:04:31.831Z,35.63
2018-12-18T01:05:31.781Z,35.63
2018-12-18T01:06:31.731Z,35.53
2018-12-18T01:07:31.682Z,35.53
2018-12-18T01:08:31.633Z,35.53
2018-12-18T01:09:31.582Z,35.35
2018-12-18T01:10:31.532Z,35.53
2018-12-18T01:11:31.483Z,35.35
2018-12-18T01:12:31.433Z,35.53
2018-12-18T01:13:31.383Z,35.53
2018-12-18T01:14:31.337Z,35.35
2018-12-18T01:15:31.285Z,35.44
2018-12-18T01:16:31.236Z,35.35
2018-12-18T01:17:31.185Z,35.63
2018-12-18T01:18:31.135Z,35.35
2018-12-18T01:19:31.092Z,35.25
2018-12-18T01:20:31.035Z,35.35
2018-12-18T01:21:30.985Z,35.53
2018-12-18T01:22:30.935Z,35.63
2018-12-18T01:23:30.886Z,35.35
2018-12-18T01:24:30.836Z,35.53
2018-12-18T01:25:30.786Z,35.63
2018-12-18T01:26:30.736Z,35.63
2018-12-18T01:27:30.687Z,35.53
2018-12-18T01:28:30.637Z,35.53
2018-12-18T01:29:30.598Z,35.44
2018-12-18T01:30:30.537Z,35.44
2018-12-18T01:31:30.488Z,35.44
2018-12-18T01:32:30.438Z,35.44
2018-12-18T01:33:30.388Z,35.44
2018-12-18T01:34:30.339Z,35.53
2018-12-18T01:35:30.289Z,35.63
2018-12-18T01:36:30.239Z,35.35
2018-12-18T01:37:30.193Z,35.35
2018-12-18T01:38:30.140Z,35.53
2018-12-18T01:39:30.191Z,35.53
2018-12-18T01:40:30.045Z,35.44
2018-12-18T01:41:29.990Z,35.53
2018-12-18T01:42:29.940Z,35.53
2018-12-18T01:43:29.892Z,35.35
2018-12-18T01:44:29.842Z,35.63
2018-12-18T01:45:29.791Z,35.73
2018-12-18T01:46:29.742Z,35.73
2018-12-18T01:47:29.692Z,35.63
2018-12-18T01:48:29.643Z,35.63
2018-12-18T01:49:29.642Z,35.53
2018-12-18T01:50:29.593Z,35.53
2018-12-18T01:51:29.492Z,35.63
2018-12-18T01:52:29.449Z,35.53
2018-12-18T01:53:29.393Z,35.63
2018-12-18T01:54:29.664Z,35.63
2018-12-18T01:55:29.295Z,35.63
2018-12-18T01:56:29.246Z,35.53
2018-12-18T01:57:29.199Z,35.63
2018-12-18T01:58:29.145Z,35.63
2018-12-18T01:59:29.097Z,35.53
2018-12-18T02:00:29.046Z,35.63
2018-12-18T02:01:28.996Z,35.63
2018-12-18T02:02:28.948Z,35.53
2018-12-18T02:03:28.897Z,35.63
2018-12-18T02:04:28.847Z,35.53
2018-12-18T02:05:28.847Z,35.53
2018-12-18T02:06:28.747Z,35.53
2018-12-18T02:07:28.696Z,35.53
2018-12-18T02:08:28.648Z,35.63
2018-12-18T02:09:28.598Z,35.63
2018-12-18T02:10:28.548Z,35.53
2018-12-18T02:11:28.499Z,35.63
2018-12-18T02:12:28.449Z,35.63
2018-12-18T02:13:28.399Z,35.73
2018-12-18T02:14:28.349Z,35.44
2018-12-18T02:15:28.299Z,35.35
2018-12-18T02:16:28.250Z,35.35
2018-12-18T02:17:28.199Z,35.35
2018-12-18T02:18:28.150Z,35.73
2018-12-18T02:19:28.103Z,35.63
2018-12-18T02:20:28.050Z,35.44
2018-12-18T02:21:28.001Z,35.35
2018-12-18T02:22:27.952Z,35.53
2018-12-18T02:23:27.902Z,35.44
2018-12-18T02:24:27.853Z,35.44
2018-12-18T02:25:27.801Z,35.44
2018-12-18T02:26:27.753Z,35.35
2018-12-18T02:27:27.703Z,35.63
2018-12-18T02:28:27.654Z,35.63
2018-12-18T02:29:27.603Z,35.63
2018-12-18T02:30:27.555Z,35.73
2018-12-18T02:31:27.504Z,35.63
2018-12-18T02:32:27.456Z,35.63
2018-12-18T02:33:27.406Z,35.53
2018-12-18T02:34:27.356Z,35.63
2018-12-18T02:35:27.306Z,35.63
2018-12-18T02:36:27.257Z,35.63
2018-12-18T02:37:27.205Z,35.35
2018-12-18T02:38:27.159Z,35.63
2018-12-18T02:39:27.111Z,35.63
2018-12-18T02:40:27.060Z,35.63
2018-12-18T02:41:27.015Z,35.63
2018-12-18T02:42:26.958Z,35.63
2018-12-18T02:43:26.910Z,35.53
2018-12-18T02:44:26.859Z,35.73
2018-12-18T02:45:26.808Z,35.63
2018-12-18T02:46:26.759Z,35.53
2018-12-18T02:47:26.709Z,35.44
2018-12-18T02:48:26.660Z,35.35
2018-12-18T02:49:26.618Z,35.35
2018-12-18T02:50:26.666Z,35.73
2018-12-18T02:51:26.511Z,35.63
2018-12-18T02:52:26.461Z,35.63
2018-12-18T02:53:26.410Z,35.44
2018-12-18T02:54:26.362Z,35.73
2018-12-18T02:55:26.312Z,35.63
2018-12-18T02:56:26.264Z,35.63
2018-12-18T02:57:26.212Z,35.63
2018-12-18T02:58:26.161Z,35.63
2018-12-18T02:59:26.141Z,35.63
2018-12-18T03:00:26.066Z,35.63
2018-12-18T03:01:26.013Z,35.63
2018-12-18T03:02:25.965Z,35.53
2018-12-18T03:03:25.914Z,35.63
2018-12-18T03:04:25.870Z,35.63
2018-12-18T03:05:25.815Z,35.53
2018-12-18T03:06:25.765Z,35.53
2018-12-18T03:07:26.082Z,35.53
2018-12-18T03:08:25.716Z,35.63
2018-12-18T03:09:26.033Z,35.53
2018-12-18T03:10:25.716Z,35.53
2018-12-18T03:11:25.517Z,35.63
2018-12-18T03:12:25.467Z,35.63
2018-12-18T03:13:25.417Z,35.53
2018-12-18T03:14:25.368Z,35.73
2018-12-18T03:15:25.318Z,35.63
2018-12-18T03:16:25.269Z,35.63
2018-12-18T03:17:25.218Z,35.73
2018-12-18T03:18:25.168Z,35.53
2018-12-18T03:19:25.120Z,35.63
2018-12-18T03:20:25.070Z,35.53
2018-12-18T03:21:25.018Z,35.53
2018-12-18T03:22:24.970Z,35.63
2018-12-18T03:23:24.921Z,35.63
2018-12-18T03:24:24.871Z,35.73
2018-12-18T03:25:24.819Z,35.63
2018-12-18T03:26:24.771Z,35.53
2018-12-18T03:27:24.725Z,35.63
2018-12-18T03:28:24.722Z,35.53
2018-12-18T03:29:24.722Z,35.73
2018-12-18T03:30:24.723Z,35.53
2018-12-18T03:31:24.524Z,35.63
2018-12-18T03:32:24.477Z,35.63
2018-12-18T03:33:24.423Z,35.63
2018-12-18T03:34:28.239Z,35.73
2018-12-18T03:35:24.325Z,35.63
2018-12-18T03:36:24.274Z,35.63
2018-12-18T03:37:24.224Z,35.73
2018-12-18T03:38:24.175Z,35.53
2018-12-18T03:39:24.125Z,35.63
2018-12-18T03:40:24.075Z,35.63
2018-12-18T03:41:24.032Z,35.53
2018-12-18T03:42:23.977Z,35.73
2018-12-18T03:43:23.926Z,35.63
2018-12-18T03:44:23.877Z,35.63
2018-12-18T03:45:23.827Z,35.63
2018-12-18T03:46:23.777Z,35.63
2018-12-18T03:47:23.728Z,35.73
2018-12-18T03:48:23.679Z,35.73
2018-12-18T03:49:23.628Z,35.73
2018-12-18T03:50:23.578Z,35.83
2018-12-18T03:51:23.581Z,35.53
2018-12-18T03:52:23.480Z,35.83
2018-12-18T03:53:23.429Z,35.73
2018-12-18T03:54:23.379Z,35.63
2018-12-18T03:55:23.334Z,35.92
2018-12-18T03:56:23.284Z,35.83
2018-12-18T03:57:23.231Z,35.63
2018-12-18T03:58:23.180Z,35.44
2018-12-18T03:59:23.132Z,35.73
2018-12-18T04:00:23.082Z,35.53
2018-12-18T04:01:23.031Z,35.92
2018-12-18T04:02:22.985Z,35.63
2018-12-18T04:03:22.932Z,35.63
2018-12-18T04:04:22.883Z,35.83
2018-12-18T04:05:22.833Z,35.92
2018-12-18T04:06:22.783Z,35.73
2018-12-18T04:07:22.733Z,35.53
2018-12-18T04:08:22.684Z,35.73
2018-12-18T04:09:22.637Z,35.63
2018-12-18T04:10:22.587Z,35.92
2018-12-18T04:11:22.536Z,35.73
2018-12-18T04:12:22.486Z,35.53
2018-12-18T04:13:22.435Z,35.73
2018-12-18T04:14:22.387Z,35.63
2018-12-18T04:15:22.336Z,35.44
2018-12-18T04:16:22.286Z,35.73
2018-12-18T04:17:22.236Z,35.73
2018-12-18T04:18:22.186Z,35.73
2018-12-18T04:19:22.140Z,35.53
2018-12-18T04:20:22.088Z,35.73
2018-12-18T04:21:22.037Z,35.73
2018-12-18T04:22:21.988Z,35.73
2018-12-18T04:23:21.938Z,35.63
2018-12-18T04:24:21.890Z,35.63
2018-12-18T04:25:21.839Z,35.63
2018-12-18T04:26:21.789Z,35.63
2018-12-18T04:27:21.740Z,35.83
2018-12-18T04:28:21.690Z,35.92
2018-12-18T04:29:21.644Z,35.92
2018-12-18T04:30:21.589Z,35.73
2018-12-18T04:31:21.592Z,35.63
2018-12-18T04:32:21.542Z,35.73
2018-12-18T04:33:21.449Z,35.63
2018-12-18T04:34:21.392Z,35.63
2018-12-18T04:35:21.342Z,36.02
2018-12-18T04:36:21.292Z,36.02
2018-12-18T04:37:21.244Z,35.92
2018-12-18T04:38:21.194Z,36.02
2018-12-18T04:39:21.146Z,35.92
2018-12-18T04:40:21.093Z,35.73
2018-12-18T04:41:21.048Z,35.63
2018-12-18T04:42:20.994Z,35.63
2018-12-18T04:43:20.951Z,35.92
2018-12-18T04:44:20.895Z,35.83
2018-12-18T04:45:20.846Z,35.83
2018-12-18T04:46:20.795Z,35.83
2018-12-18T04:47:20.766Z,35.83
2018-12-18T04:48:20.698Z,35.83
2018-12-18T04:49:20.645Z,35.83
2018-12-18T04:50:20.920Z,36.02
2018-12-18T04:51:20.597Z,36.02
2018-12-18T04:52:20.601Z,35.83
2018-12-18T04:53:20.447Z,35.83
2018-12-18T04:54:20.404Z,35.92
2018-12-18T04:55:20.349Z,35.83
2018-12-18T04:56:20.302Z,35.83
2018-12-18T04:57:20.250Z,35.92
2018-12-18T04:58:20.200Z,35.83
2018-12-18T04:59:20.148Z,35.92
2018-12-18T05:00:20.101Z,35.83
2018-12-18T05:01:20.050Z,35.92
2018-12-18T05:02:20.000Z,35.92
2018-12-18T05:03:19.952Z,35.92
2018-12-18T05:04:19.904Z,35.73
2018-12-18T05:05:19.853Z,35.73
2018-12-18T05:06:19.803Z,35.73
2018-12-18T05:07:19.767Z,35.83
2018-12-18T05:08:19.704Z,35.73
2018-12-18T05:09:19.654Z,35.83
2018-12-18T05:10:19.654Z,35.73
2018-12-18T05:11:19.606Z,35.83
2018-12-18T05:12:19.506Z,35.73
2018-12-18T05:13:19.456Z,36.02
2018-12-18T05:14:19.405Z,35.83
2018-12-18T05:15:19.356Z,36.02
2018-12-18T05:16:19.307Z,35.73
2018-12-18T05:17:19.256Z,35.83
2018-12-18T05:18:19.207Z,35.73
2018-12-18T05:19:19.157Z,35.73
2018-12-18T05:20:19.107Z,35.73
2018-12-18T05:21:19.059Z,35.83
2018-12-18T05:22:19.010Z,35.73
2018-12-18T05:23:18.959Z,35.73
2018-12-18T05:24:18.910Z,36.04
2018-12-18T05:25:18.861Z,35.63
2018-12-18T05:26:18.894Z,35.83
2018-12-18T05:27:18.760Z,35.84
2018-12-18T05:28:18.713Z,35.73
2018-12-18T05:29:18.661Z,36.02
2018-12-18T05:30:18.612Z,36.02
2018-12-18T05:31:18.663Z,35.92
2018-12-18T05:32:18.513Z,35.83
2018-12-18T05:33:18.463Z,36.02
2018-12-18T05:34:18.412Z,35.83
2018-12-18T05:35:18.364Z,35.94
2018-12-18T05:36:18.314Z,35.83
2018-12-18T05:37:18.264Z,35.84
2018-12-18T05:38:18.215Z,36.04
2018-12-18T05:39:18.165Z,35.92
2018-12-18T05:40:18.118Z,36.02
2018-12-18T05:41:18.066Z,36.11
2018-12-18T05:42:18.016Z,35.92
2018-12-18T05:43:17.967Z,36.11
2018-12-18T05:44:17.921Z,35.83
2018-12-18T05:45:17.866Z,35.83
2018-12-18T05:46:17.818Z,35.92
2018-12-18T05:47:17.767Z,35.94
2018-12-18T05:48:17.719Z,36.02
2018-12-18T05:49:17.673Z,36.02
2018-12-18T05:50:17.620Z,36.02
2018-12-18T05:51:17.570Z,36.02
2018-12-18T05:52:17.571Z,36.02
2018-12-18T05:53:17.470Z,35.83
2018-12-18T05:54:17.420Z,35.92
2018-12-18T05:55:17.370Z,35.92
2018-12-18T05:56:17.322Z,35.92
2018-12-18T05:57:17.272Z,35.92
2018-12-18T05:58:17.223Z,35.83
2018-12-18T05:59:17.172Z,35.92
2018-12-18T06:00:17.124Z,35.92
2018-12-18T06:01:17.076Z,35.83
2018-12-18T06:02:17.025Z,36.02
2018-12-18T06:03:16.980Z,36.21
2018-12-18T06:04:16.925Z,36.21
2018-12-18T06:05:16.875Z,35.94
2018-12-18T06:06:16.825Z,36.21
2018-12-18T06:07:16.776Z,36.22
2018-12-18T06:08:16.726Z,36.21
2018-12-18T06:09:16.678Z,36.22
2018-12-18T06:10:16.628Z,36.21
2018-12-18T06:11:16.578Z,36.21
2018-12-18T06:12:16.532Z,36.22
2018-12-18T06:13:16.477Z,36.21
2018-12-18T06:14:16.428Z,36.22
2018-12-18T06:15:16.379Z,36.11
2018-12-18T06:16:16.330Z,36.13
2018-12-18T06:17:16.279Z,36.13
2018-12-18T06:18:16.230Z,36.30
2018-12-18T06:19:16.181Z,36.21
2018-12-18T06:20:16.132Z,36.21
2018-12-18T06:21:16.082Z,36.21
2018-12-18T06:22:16.031Z,36.21
2018-12-18T06:23:15.982Z,36.22
2018-12-18T06:24:15.933Z,36.21
2018-12-18T06:25:16.683Z,35.92
2018-12-18T06:26:15.833Z,36.13
2018-12-18T06:27:15.784Z,36.22
2018-12-18T06:28:15.735Z,36.11
2018-12-18T06:29:15.683Z,36.13
2018-12-18T06:30:15.635Z,36.22
2018-12-18T06:31:15.585Z,36.21
2018-12-18T06:32:15.585Z,36.32
2018-12-18T06:33:15.586Z,36.21
2018-12-18T06:34:15.437Z,36.30
2018-12-18T06:35:15.387Z,36.30
2018-12-18T06:36:15.338Z,36.30
2018-12-18T06:37:15.288Z,36.22
2018-12-18T06:38:15.238Z,36.32
2018-12-18T06:39:15.189Z,36.32
2018-12-18T06:40:15.139Z,36.42
2018-12-18T06:41:15.089Z,36.42
2018-12-18T06:42:15.040Z,36.32
2018-12-18T06:43:14.990Z,36.13
2018-12-18T06:44:14.941Z,36.32
2018-12-18T06:45:14.890Z,36.32
2018-12-18T06:46:14.844Z,36.22
2018-12-18T06:47:14.792Z,36.42
2018-12-18T06:48:14.742Z,36.32
2018-12-18T06:49:14.692Z,36.02
2018-12-18T06:50:14.642Z,36.32
2018-12-18T06:51:14.594Z,36.30
2018-12-18T06:52:14.594Z,36.42
2018-12-18T06:53:14.494Z,36.30
2018-12-18T06:54:14.445Z,36.40
2018-12-18T06:55:14.394Z,36.42
2018-12-18T06:56:14.346Z,36.40
2018-12-18T06:57:14.295Z,36.42
2018-12-18T06:58:14.246Z,36.40
2018-12-18T06:59:14.198Z,36.40
2018-12-18T07:00:14.147Z,36.30
2018-12-18T07:01:14.097Z,36.32
2018-12-18T07:02:14.364Z,36.30
2018-12-18T07:03:14.007Z,36.22
2018-12-18T07:04:13.949Z,36.40
2018-12-18T07:05:16.918Z,36.40
2018-12-18T07:06:13.848Z,36.32
2018-12-18T07:07:13.800Z,36.22
2018-12-18T07:08:13.751Z,36.40
2018-12-18T07:09:13.700Z,36.21
2018-12-18T07:10:13.651Z,36.40
2018-12-18T07:11:13.602Z,36.32
2018-12-18T07:12:13.553Z,36.42
2018-12-18T07:13:13.502Z,36.21
2018-12-18T07:14:13.454Z,36.22
2018-12-18T07:15:13.403Z,36.21
2018-12-18T07:16:13.354Z,36.22
2018-12-18T07:17:13.304Z,36.32
2018-12-18T07:18:13.256Z,36.21
2018-12-18T07:19:13.205Z,36.21
2018-12-18T07:20:13.154Z,36.22
2018-12-18T07:21:13.105Z,36.22
2018-12-18T07:22:13.341Z,36.32
2018-12-18T07:23:13.007Z,36.22
2018-12-18T07:24:14.246Z,36.22
2018-12-18T07:25:12.907Z,36.21
2018-12-18T07:26:12.857Z,36.11
2018-12-18T07:27:12.807Z,36.21
2018-12-18T07:28:12.759Z,36.13
2018-12-18T07:29:12.708Z,36.04
2018-12-18T07:30:12.658Z,36.11
2018-12-18T07:31:12.608Z,36.04
2018-12-18T07:32:12.560Z,36.42
2018-12-18T07:33:12.510Z,36.88
2018-12-18T07:34:12.460Z,36.71
2018-12-18T07:35:12.411Z,36.61
2018-12-18T07:36:12.364Z,36.61
2018-12-18T07:37:12.312Z,37.09
2018-12-18T07:38:12.261Z,37.09
2018-12-18T07:39:12.213Z,37.09
2018-12-18T07:40:12.163Z,37.28
2018-12-18T07:41:12.115Z,36.99
2018-12-18T07:42:12.064Z,37.28
2018-12-18T07:43:12.014Z,37.28
2018-12-18T07:44:11.966Z,37.38
2018-12-18T07:45:11.917Z,37.76
2018-12-18T07:46:11.866Z,37.38
2018-12-18T07:47:11.823Z,37.76
2018-12-18T07:48:11.766Z,37.95
2018-12-18T07:49:11.717Z,37.85
2018-12-18T07:50:11.667Z,37.76
2018-12-18T07:51:11.619Z,37.66
2018-12-18T07:52:11.569Z,37.76
2018-12-18T07:53:11.520Z,37.76
2018-12-18T07:54:11.469Z,37.66
2018-12-18T07:55:11.420Z,37.85
2018-12-18T07:56:11.371Z,37.76
2018-12-18T07:57:11.319Z,37.85
2018-12-18T07:58:11.270Z,37.28
2018-12-18T07:59:11.221Z,37.47
2018-12-18T08:00:11.172Z,37.57
2018-12-18T08:01:11.121Z,37.66
2018-12-18T08:02:11.072Z,37.66
2018-12-18T08:03:11.024Z,37.28
2018-12-18T08:04:10.974Z,37.47
2018-12-18T08:05:10.922Z,37.57
2018-12-18T08:06:10.875Z,37.47
2018-12-18T08:07:10.825Z,37.47
2018-12-18T08:08:10.775Z,37.38
2018-12-18T08:09:10.726Z,37.09
2018-12-18T08:10:10.677Z,36.99
2018-12-18T08:11:10.626Z,37.18
2018-12-18T08:12:10.582Z,37.09
2018-12-18T08:13:10.579Z,37.18
2018-12-18T08:14:10.497Z,36.99
2018-12-18T08:15:10.429Z,37.28
2018-12-18T08:16:10.386Z,37.09
2018-12-18T08:17:10.334Z,37.09
2018-12-18T08:18:10.280Z,37.28
2018-12-18T08:19:10.230Z,37.28
2018-12-18T08:20:10.183Z,37.28
2018-12-18T08:21:10.137Z,36.90
2018-12-18T08:22:10.081Z,36.90
2018-12-18T08:23:10.032Z,37.38
2018-12-18T08:24:09.984Z,37.38
2018-12-18T08:25:09.932Z,37.09
2018-12-18T08:26:09.894Z,37.38
2018-12-18T08:27:09.834Z,36.80
2018-12-18T08:28:09.784Z,37.47
2018-12-18T08:29:09.735Z,36.90
2018-12-18T08:30:09.686Z,37.38
2018-12-18T08:31:09.635Z,37.28
2018-12-18T08:32:09.679Z,36.90
2018-12-18T08:33:09.537Z,36.71
2018-12-18T08:34:09.487Z,36.80
2018-12-18T08:35:09.445Z,36.80
2018-12-18T08:36:09.389Z,36.80
2018-12-18T08:37:09.338Z,36.80
2018-12-18T08:38:09.290Z,36.80
2018-12-18T08:39:09.239Z,37.38
2018-12-18T08:40:09.190Z,37.18
2018-12-18T08:41:09.141Z,37.18
2018-12-18T08:42:09.092Z,36.99
2018-12-18T08:43:09.042Z,37.09
2018-12-18T08:44:08.995Z,37.09
2018-12-18T08:45:08.943Z,37.09
2018-12-18T08:46:10.395Z,37.28
2018-12-18T08:47:08.843Z,37.09
2018-12-18T08:48:08.794Z,37.09
2018-12-18T08:49:08.744Z,37.28
2018-12-18T08:50:08.696Z,37.09
2018-12-18T08:51:08.696Z,37.09
2018-12-18T08:52:08.601Z,37.09
2018-12-18T08:53:08.549Z,37.09
2018-12-18T08:54:08.496Z,37.09
2018-12-18T08:55:08.447Z,37.18
2018-12-18T08:56:08.398Z,37.09
2018-12-18T08:57:08.353Z,37.18
2018-12-18T08:58:08.300Z,36.99
2018-12-18T08:59:08.249Z,37.18
2018-12-18T09:00:08.206Z,37.09
2018-12-18T09:01:08.151Z,37.28
2018-12-18T09:02:08.100Z,37.47
2018-12-18T09:03:08.051Z,37.28
2018-12-18T09:04:08.004Z,37.38
2018-12-18T09:05:07.951Z,37.76
2018-12-18T09:06:07.905Z,37.76
2018-12-18T09:07:07.853Z,37.47
2018-12-18T09:08:07.804Z,37.76
2018-12-18T09:09:07.753Z,37.97
2018-12-18T09:10:07.705Z,37.95
2018-12-18T09:11:07.656Z,37.87
2018-12-18T09:12:07.613Z,38.14
2018-12-18T09:13:07.607Z,38.05
2018-12-18T09:14:07.507Z,38.07
2018-12-18T09:15:07.458Z,38.24
2018-12-18T09:16:07.408Z,38.35
2018-12-18T09:17:07.358Z,38.64
2018-12-18T09:18:07.311Z,38.64
2018-12-18T09:19:07.265Z,38.74
2018-12-18T09:20:07.211Z,38.54
2018-12-18T09:21:07.161Z,38.83
2018-12-18T09:22:07.112Z,38.83
2018-12-18T09:23:07.067Z,38.83
2018-12-18T09:24:07.014Z,39.03
2018-12-18T09:25:06.963Z,38.93
2018-12-18T09:26:06.915Z,39.03
2018-12-18T09:27:06.866Z,39.12
2018-12-18T09:28:06.815Z,38.93
2018-12-18T09:29:06.765Z,39.03
2018-12-18T09:30:06.797Z,39.12
2018-12-18T09:31:06.668Z,39.03
2018-12-18T09:32:06.620Z,39.22
2018-12-18T09:33:06.569Z,39.03
2018-12-18T09:34:06.520Z,39.03
2018-12-18T09:35:06.470Z,39.03
2018-12-18T09:36:06.421Z,39.03
2018-12-18T09:37:06.372Z,39.12
2018-12-18T09:38:06.323Z,39.22
2018-12-18T09:39:06.274Z,39.12
2018-12-18T09:40:06.223Z,39.12
2018-12-18T09:41:06.174Z,39.03
2018-12-18T09:42:06.131Z,39.03
2018-12-18T09:43:06.076Z,39.03
2018-12-18T09:44:06.038Z,39.12
2018-12-18T09:45:05.977Z,38.93
2018-12-18T09:46:05.930Z,38.83
2018-12-18T09:47:05.879Z,38.83
2018-12-18T09:48:05.830Z,39.14
2018-12-18T09:49:05.780Z,38.93
2018-12-18T09:50:05.796Z,39.12
2018-12-18T09:51:05.682Z,39.12
2018-12-18T09:52:05.634Z,39.04
2018-12-18T09:53:05.633Z,39.14
2018-12-18T09:54:05.584Z,39.12
2018-12-18T09:55:05.487Z,39.12
2018-12-18T09:56:05.436Z,39.14
2018-12-18T09:57:05.387Z,39.14
2018-12-18T09:58:05.338Z,39.03
2018-12-18T09:59:05.290Z,39.03
2018-12-18T10:00:05.239Z,39.22
2018-12-18T10:01:05.188Z,39.12
2018-12-18T10:02:05.142Z,39.14
2018-12-18T10:03:05.092Z,39.22
2018-12-18T10:04:05.055Z,39.12
2018-12-18T10:05:04.993Z,39.14
2018-12-18T10:06:04.943Z,39.23
2018-12-18T10:07:04.895Z,39.14
2018-12-18T10:08:04.845Z,39.23
2018-12-18T10:09:09.577Z,39.23
2018-12-18T10:10:04.747Z,39.14
2018-12-18T10:11:04.698Z,39.04
2018-12-18T10:12:04.819Z,39.04
2018-12-18T10:13:04.598Z,39.14
2018-12-18T10:14:04.550Z,39.14
2018-12-18T10:15:04.501Z,39.23
2018-12-18T10:16:04.452Z,39.14
2018-12-18T10:17:04.408Z,39.12
2018-12-18T10:18:04.354Z,39.23
2018-12-18T10:19:04.306Z,39.14
2018-12-18T10:20:04.257Z,39.14
2018-12-18T10:21:04.278Z,39.14
2018-12-18T10:22:04.157Z,39.23
2018-12-18T10:23:04.108Z,39.14
2018-12-18T10:24:04.059Z,39.14
2018-12-18T10:25:04.011Z,39.12
2018-12-18T10:26:03.964Z,39.22
2018-12-18T10:27:03.913Z,39.22
2018-12-18T10:28:03.864Z,39.22
2018-12-18T10:29:03.819Z,39.22
2018-12-18T10:30:03.764Z,39.22
2018-12-18T10:31:03.717Z,39.22
2018-12-18T10:32:03.666Z,39.14
2018-12-18T10:33:03.618Z,39.12
2018-12-18T10:34:03.567Z,39.23
2018-12-18T10:35:03.519Z,39.22
2018-12-18T10:36:03.517Z,39.33
2018-12-18T10:37:03.420Z,39.33
2018-12-18T10:38:03.385Z,39.22
2018-12-18T10:39:03.323Z,39.14
2018-12-18T10:40:03.274Z,39.23
2018-12-18T10:41:03.223Z,39.23
2018-12-18T10:42:03.174Z,39.03
2018-12-18T10:43:03.127Z,39.14
2018-12-18T10:44:03.078Z,38.76
2018-12-18T10:45:03.026Z,38.85
2018-12-18T10:46:02.979Z,38.47
2018-12-18T10:47:02.931Z,38.66
2018-12-18T10:48:02.884Z,38.47
2018-12-18T10:49:02.830Z,38.18
2018-12-18T10:50:02.783Z,38.47
2018-12-18T10:51:02.736Z,37.99
2018-12-18T10:52:02.687Z,38.10
2018-12-18T10:53:02.635Z,37.72
2018-12-18T10:54:02.588Z,37.89
2018-12-18T10:55:02.540Z,37.91
2018-12-18T10:56:02.490Z,38.10
2018-12-18T10:57:02.440Z,37.82
2018-12-18T10:58:02.392Z,37.72
2018-12-18T10:59:02.344Z,37.82
2018-12-18T11:00:02.294Z,37.91
2018-12-18T11:01:02.246Z,37.53
2018-12-18T11:02:02.198Z,37.91
2018-12-18T11:03:02.148Z,37.34
2018-12-18T11:04:02.100Z,37.43
2018-12-18T11:05:02.049Z,37.34
2018-12-18T11:06:02.002Z,37.43
2018-12-18T11:07:01.955Z,37.15
2018-12-18T11:08:01.908Z,37.34
2018-12-18T11:09:01.856Z,37.24
2018-12-18T11:10:01.809Z,37.15
2018-12-18T11:11:01.759Z,37.15
2018-12-18T11:12:01.712Z,37.24
2018-12-18T11:13:01.664Z,37.34
2018-12-18T11:14:01.615Z,37.43
2018-12-18T11:15:01.565Z,37.55
2018-12-18T11:16:01.519Z,37.35
2018-12-18T11:17:01.466Z,37.16
2018-12-18T11:18:01.418Z,37.26
2018-12-18T11:19:01.371Z,37.45
2018-12-18T11:20:01.322Z,37.35
2018-12-18T11:21:01.275Z,37.35
2018-12-18T11:22:01.226Z,37.16
2018-12-18T11:23:01.179Z,37.35
2018-12-18T11:24:01.129Z,37.16
2018-12-18T11:25:01.079Z,37.16
2018-12-18T11:26:01.032Z,37.16
2018-12-18T11:27:00.987Z,37.26
2018-12-18T11:28:00.936Z,37.16
2018-12-18T11:29:00.887Z,37.16
2018-12-18T11:30:00.840Z,37.35
2018-12-18T11:31:00.791Z,37.35
2018-12-18T11:32:00.744Z,37.16
2018-12-18T11:33:00.693Z,37.35
2018-12-18T11:34:00.648Z,37.18
2018-12-18T11:35:00.599Z,37.27
2018-12-18T11:36:00.599Z,37.27
2018-12-18T11:37:00.501Z,37.37
2018-12-18T11:38:00.452Z,37.47
2018-12-18T11:39:00.404Z,37.18
2018-12-18T11:40:00.357Z,36.99
2018-12-18T11:41:00.308Z,36.90
2018-12-18T11:42:00.260Z,36.99
2018-12-18T11:43:00.212Z,37.37
2018-12-18T11:44:00.172Z,37.18
2018-12-18T11:45:00.116Z,37.27
2018-12-18T11:46:00.067Z,36.99
2018-12-18T11:47:00.022Z,37.37
2018-12-18T11:47:59.972Z,37.27
2018-12-18T11:48:59.922Z,36.90
2018-12-18T11:49:59.874Z,36.90
2018-12-18T11:50:59.827Z,36.90
2018-12-18T11:51:59.778Z,36.80
2018-12-18T11:52:59.729Z,37.08
2018-12-18T11:53:59.682Z,36.99
2018-12-18T11:54:59.634Z,36.70
2018-12-18T11:55:59.687Z,36.70
2018-12-18T11:56:59.538Z,36.99
2018-12-18T11:57:59.490Z,36.60
2018-12-18T11:58:59.442Z,36.90
2018-12-18T11:59:59.394Z,36.51
2018-12-18T12:00:59.350Z,36.70
2018-12-18T12:01:59.297Z,36.90
2018-12-18T12:02:59.251Z,36.60
2018-12-18T12:03:59.201Z,36.60
2018-12-18T12:04:59.154Z,36.60
2018-12-18T12:05:59.110Z,37.18
2018-12-18T12:06:59.071Z,36.80
2018-12-18T12:07:59.010Z,36.70
2018-12-18T12:08:58.960Z,36.80
2018-12-18T12:09:58.913Z,36.60
2018-12-18T12:10:58.866Z,36.70
2018-12-18T12:11:58.818Z,36.99
2018-12-18T12:12:58.773Z,36.99
2018-12-18T12:13:58.722Z,36.70
2018-12-18T12:14:58.674Z,36.60
2018-12-18T12:15:58.626Z,36.60
2018-12-18T12:16:58.578Z,36.99
2018-12-18T12:17:58.530Z,36.60
2018-12-18T12:18:58.483Z,36.51
2018-12-18T12:19:58.435Z,36.60
2018-12-18T12:20:58.386Z,36.32
2018-12-18T12:21:58.338Z,36.13
2018-12-18T12:22:58.291Z,36.13
2018-12-18T12:23:58.243Z,36.13
2018-12-18T12:24:58.194Z,36.13
2018-12-18T12:25:58.146Z,36.32
2018-12-18T12:26:58.098Z,36.41
2018-12-18T12:27:58.051Z,36.41
2018-12-18T12:28:58.001Z,36.41
2018-12-18T12:29:57.955Z,36.41
2018-12-18T12:30:57.916Z,36.41
2018-12-18T12:31:57.859Z,36.41
2018-12-18T12:32:57.811Z,36.41
2018-12-18T12:33:57.763Z,36.32
2018-12-18T12:34:57.715Z,36.03
2018-12-18T12:35:57.667Z,36.03
2018-12-18T12:36:57.618Z,36.13
2018-12-18T12:37:57.571Z,36.15
2018-12-18T12:38:57.524Z,36.03
2018-12-18T12:39:57.477Z,36.13
2018-12-18T12:40:57.427Z,35.85
2018-12-18T12:41:57.378Z,35.93
2018-12-18T12:42:57.331Z,35.85
2018-12-18T12:43:57.285Z,36.05
2018-12-18T12:44:57.236Z,36.13
2018-12-18T12:45:57.189Z,35.74
2018-12-18T12:46:57.141Z,35.66
2018-12-18T12:47:57.094Z,35.83
2018-12-18T12:48:57.054Z,35.85
2018-12-18T12:49:56.996Z,35.66
2018-12-18T12:50:56.949Z,35.74
2018-12-18T12:51:56.900Z,35.85